createdAt,value
2018-09-28T00:01:52.283Z,8.63
2018-09-28T00:05:56.406Z,8.80
2018-09-28T00:10:00.127Z,8.50
2018-09-28T00:14:03.965Z,8.80
2018-09-28T00:18:07.744Z,8.23
2018-09-28T00:22:11.544Z,8.77
2018-09-28T00:26:15.311Z,7.87
2018-09-28T00:30:19.025Z,6.33
2018-09-28T00:34:22.871Z,6.83
2018-09-28T00:38:26.687Z,8.33
2018-09-28T00:42:30.390Z,7.97
2018-09-28T00:46:34.102Z,8.17
2018-09-28T00:50:37.854Z,8.70
2018-09-28T00:54:41.604Z,7.77
2018-09-28T00:58:45.314Z,8.83
2018-09-28T01:02:49.036Z,9.23
2018-09-28T01:06:52.737Z,8.77
2018-09-28T01:10:56.478Z,8.57
2018-09-28T01:15:00.207Z,10.37
2018-09-28T01:19:03.993Z,10.17
2018-09-28T01:23:07.801Z,10.23
2018-09-28T01:27:11.521Z,11.77
2018-09-28T01:31:15.214Z,11.97
2018-09-28T01:35:20.142Z,12.73
2018-09-28T01:39:23.868Z,11.67
2018-09-28T01:43:27.596Z,13.33
2018-09-28T01:47:31.317Z,13.47
2018-09-28T01:51:35.017Z,13.87
2018-09-28T01:55:38.754Z,14.20
2018-09-28T01:59:42.456Z,13.67
2018-09-28T02:03:46.140Z,14.33
2018-09-28T02:07:49.885Z,13.67
2018-09-28T02:11:53.573Z,13.87
2018-09-28T02:15:57.334Z,14.30
2018-09-28T02:20:01.054Z,14.80
2018-09-28T02:24:04.776Z,15.63
2018-09-28T02:28:08.469Z,16.17
2018-09-28T02:32:12.157Z,16.60
2018-09-28T02:36:15.854Z,15.40
2018-09-28T02:40:19.608Z,16.67
2018-09-28T02:44:23.299Z,16.70
2018-09-28T02:48:26.997Z,17.93
2018-09-28T02:52:30.650Z,17.13
2018-09-28T02:56:34.362Z,16.80
2018-09-28T03:00:38.045Z,19.13
2018-09-28T03:04:41.812Z,21.13
2018-09-28T03:08:45.519Z,19.73
2018-09-28T03:12:49.193Z,18.93
2018-09-28T03:16:52.875Z,19.90
2018-09-28T03:20:56.594Z,19.93
2018-09-28T03:25:00.276Z,18.00
2018-09-28T03:29:03.997Z,19.23
2018-09-28T03:33:07.678Z,20.43
2018-09-28T03:37:11.378Z,19.50
2018-09-28T03:41:15.088Z,20.73
2018-09-28T03:45:18.768Z,19.13
2018-09-28T03:49:22.460Z,21.83
2018-09-28T03:53:26.160Z,20.87
2018-09-28T03:57:29.832Z,21.83
2018-09-28T04:01:33.529Z,21.33
2018-09-28T04:05:37.298Z,21.67
2018-09-28T04:09:41.023Z,22.80
2018-09-28T04:13:44.685Z,22.23
2018-09-28T04:17:48.389Z,24.03
2018-09-28T04:21:56.225Z,24.20
2018-09-28T04:26:00.237Z,23.83
2018-09-28T04:30:03.966Z,25.03
2018-09-28T04:34:07.699Z,22.17
2018-09-28T04:38:11.511Z,24.00
2018-09-28T04:42:15.216Z,25.53
2018-09-28T04:46:18.918Z,26.80
2018-09-28T04:50:22.615Z,25.87
2018-09-28T04:54:26.318Z,19.57
2018-09-28T04:58:30.009Z,19.67
2018-09-28T05:02:33.702Z,17.73
2018-09-28T05:06:37.505Z,15.93
2018-09-28T05:10:41.201Z,15.53
2018-09-28T05:14:44.887Z,13.83
2018-09-28T05:18:48.573Z,13.17
2018-09-28T05:22:52.336Z,13.37
2018-09-28T05:26:56.059Z,11.37
2018-09-28T05:30:59.903Z,12.20
2018-09-28T05:35:03.673Z,10.03
2018-09-28T05:39:08.465Z,9.57
2018-09-28T05:43:12.175Z,8.87
2018-09-28T05:47:15.894Z,6.00
2018-09-28T05:51:19.578Z,5.43
2018-09-28T05:55:23.288Z,3.77
2018-09-28T05:59:32.446Z,2.77
2018-09-28T06:03:40.450Z,2.00
2018-09-28T06:07:44.165Z,2.47
2018-09-28T06:11:47.881Z,2.50
2018-09-28T06:15:51.803Z,2.40
2018-09-28T06:20:02.138Z,1.97
2018-09-28T06:24:05.998Z,2.20
2018-09-28T06:28:09.684Z,2.53
2018-09-28T06:32:13.393Z,2.73
2018-09-28T06:36:17.324Z,2.17
2018-09-28T06:40:21.086Z,2.43
2018-09-28T06:44:24.792Z,2.00
2018-09-28T06:48:28.488Z,2.50
2018-09-28T06:52:32.183Z,2.37
2018-09-28T06:56:35.908Z,1.87
2018-09-28T07:00:39.603Z,2.73
2018-09-28T07:04:43.422Z,3.30
2018-09-28T07:08:47.116Z,1.93
2018-09-28T07:12:50.806Z,2.20
2018-09-28T07:16:54.569Z,2.30
2018-09-28T07:20:58.196Z,2.20
2018-09-28T07:25:01.926Z,2.70
2018-09-28T07:29:05.677Z,2.30
2018-09-28T07:33:09.557Z,3.07
2018-09-28T07:37:13.348Z,2.67
2018-09-28T07:41:16.980Z,2.40
2018-09-28T07:45:20.675Z,3.10
2018-09-28T07:49:24.394Z,2.90
2018-09-28T07:53:28.187Z,2.60
2018-09-28T07:57:31.861Z,2.77
2018-09-28T08:01:35.575Z,3.13
2018-09-28T08:05:39.297Z,2.40
2018-09-28T08:09:42.997Z,3.13
2018-09-28T08:13:46.683Z,2.33
2018-09-28T08:17:50.434Z,3.53
2018-09-28T08:21:54.112Z,3.10
2018-09-28T08:25:57.816Z,2.60
2018-09-28T08:30:01.518Z,2.47
2018-09-28T08:34:05.300Z,2.60
2018-09-28T08:38:09.021Z,2.53
2018-09-28T08:42:12.672Z,3.27
2018-09-28T08:46:16.358Z,2.57
2018-09-28T08:50:20.206Z,2.63
2018-09-28T08:54:23.992Z,2.37
2018-09-28T08:58:27.678Z,2.87
2018-09-28T09:02:31.327Z,2.80
2018-09-28T09:06:35.131Z,3.87
2018-09-28T09:10:38.831Z,2.80
2018-09-28T09:14:42.538Z,2.20
2018-09-28T09:18:46.232Z,2.53
2018-09-28T09:22:49.902Z,2.80
2018-09-28T09:26:53.608Z,2.67
2018-09-28T09:30:57.437Z,2.43
2018-09-28T09:35:01.166Z,2.73
2018-09-28T09:39:06.461Z,2.77
2018-09-28T09:43:10.117Z,2.93
2018-09-28T09:47:13.801Z,2.67
2018-09-28T09:51:17.499Z,2.40
2018-09-28T09:55:21.185Z,2.30
2018-09-28T09:59:24.996Z,2.37
2018-09-28T10:03:33.990Z,1.73
2018-09-28T10:07:37.672Z,2.23
2018-09-28T10:11:41.382Z,2.40
2018-09-28T10:15:45.138Z,2.73
2018-09-28T10:19:49.097Z,2.50
2018-09-28T10:23:52.792Z,2.33
2018-09-28T10:27:56.594Z,2.67
2018-09-28T10:32:00.293Z,2.10
2018-09-28T10:36:04.081Z,2.07
2018-09-28T10:40:07.777Z,2.27
2018-09-28T10:44:11.493Z,2.47
2018-09-28T10:48:15.222Z,2.00
2018-09-28T10:52:19.116Z,2.17
2018-09-28T10:56:22.624Z,2.30
2018-09-28T11:00:26.380Z,1.50
2018-09-28T11:04:30.051Z,1.53
2018-09-28T11:08:33.999Z,1.70
2018-09-28T11:12:37.541Z,1.60
2018-09-28T11:16:41.561Z,2.10
2018-09-28T11:20:45.353Z,2.17
2018-09-28T11:24:49.089Z,2.40
2018-09-28T11:28:52.788Z,1.93
2018-09-28T11:32:56.499Z,1.80
2018-09-28T11:37:00.190Z,1.63
2018-09-28T11:41:03.898Z,2.20
2018-09-28T11:45:07.722Z,1.70
2018-09-28T11:49:11.463Z,1.20
2018-09-28T11:53:15.131Z,1.40
2018-09-28T11:57:18.877Z,1.73
2018-09-28T12:01:22.619Z,1.60
2018-09-28T12:05:26.339Z,1.67
2018-09-28T12:09:30.078Z,1.73
2018-09-28T12:13:33.824Z,1.80
2018-09-28T12:17:37.524Z,1.30
2018-09-28T12:21:41.277Z,2.03
2018-09-28T12:25:45.004Z,1.93
2018-09-28T12:29:48.700Z,1.67
2018-09-28T12:33:52.440Z,1.73
2018-09-28T12:37:56.121Z,1.70
2018-09-28T12:41:59.823Z,1.90
2018-09-28T12:46:03.521Z,1.67
2018-09-28T12:50:07.303Z,2.10
2018-09-28T12:54:11.006Z,1.90
2018-09-28T12:58:14.694Z,1.60
2018-09-28T13:02:18.438Z,1.40
2018-09-28T13:06:22.146Z,1.93
2018-09-28T13:10:25.876Z,1.13
2018-09-28T13:14:29.638Z,1.30
2018-09-28T13:18:33.255Z,1.50
2018-09-28T13:22:37.004Z,1.27
2018-09-28T13:26:40.777Z,1.03
2018-09-28T13:30:44.589Z,1.37
2018-09-28T13:34:48.343Z,1.47
2018-09-28T13:38:52.156Z,1.30
2018-09-28T13:42:55.834Z,1.30
2018-09-28T13:46:59.543Z,0.93
2018-09-28T13:51:03.253Z,1.20
2018-09-28T13:55:07.035Z,1.10
2018-09-28T13:59:10.696Z,1.17
2018-09-28T14:03:14.404Z,1.00
2018-09-28T14:07:18.175Z,0.90
2018-09-28T14:11:21.858Z,0.77
2018-09-28T14:15:25.557Z,1.50
2018-09-28T14:19:29.209Z,1.20
2018-09-28T14:23:32.927Z,1.10
2018-09-28T14:27:36.626Z,1.20
2018-09-28T14:31:46.980Z,1.03
2018-09-28T14:35:50.717Z,1.10
2018-09-28T14:39:54.401Z,1.50
2018-09-28T14:43:58.157Z,1.70
2018-09-28T14:48:01.852Z,1.30
2018-09-28T14:52:05.598Z,1.60
2018-09-28T14:56:09.378Z,1.30
2018-09-28T15:00:13.073Z,1.00
2018-09-28T15:04:16.920Z,1.47
2018-09-28T15:08:20.632Z,1.30
2018-09-28T15:12:24.422Z,1.00
2018-09-28T15:16:34.591Z,0.80
2018-09-28T15:20:42.561Z,1.17
2018-09-28T15:24:46.284Z,1.20
2018-09-28T15:28:49.966Z,1.03
2018-09-28T15:32:53.721Z,1.43
2018-09-28T15:36:57.429Z,1.87
2018-09-28T15:41:01.109Z,1.23
2018-09-28T15:45:04.845Z,2.07
2018-09-28T15:49:08.601Z,1.73
2018-09-28T15:53:12.280Z,1.27
2018-09-28T15:57:15.968Z,1.40
2018-09-28T16:01:19.662Z,1.77
2018-09-28T16:05:23.420Z,1.63
2018-09-28T16:09:27.094Z,1.63
2018-09-28T16:13:30.793Z,1.40
2018-09-28T16:17:34.545Z,1.57
2018-09-28T16:21:38.300Z,1.37
2018-09-28T16:25:41.969Z,1.43
2018-09-28T16:29:45.677Z,1.53
2018-09-28T16:33:49.449Z,1.40
2018-09-28T16:37:53.173Z,1.90
2018-09-28T16:41:56.824Z,1.60
2018-09-28T16:46:00.517Z,1.57
2018-09-28T16:50:05.021Z,1.20
2018-09-28T16:54:08.716Z,1.80
2018-09-28T16:58:12.408Z,1.57
2018-09-28T17:02:16.066Z,1.83
2018-09-28T17:06:19.781Z,1.87
2018-09-28T17:10:23.551Z,1.40
2018-09-28T17:14:27.265Z,1.23
2018-09-28T17:18:30.992Z,1.07
2018-09-28T17:22:34.704Z,1.13
2018-09-28T17:26:38.403Z,1.83
2018-09-28T17:30:42.114Z,1.53
2018-09-28T17:34:45.909Z,1.40
2018-09-28T17:38:49.580Z,1.63
2018-09-28T17:42:53.281Z,1.67
2018-09-28T17:46:57.074Z,2.23
2018-09-28T17:51:01.648Z,1.47
2018-09-28T17:55:05.498Z,1.53
2018-09-28T17:59:09.214Z,1.97
2018-09-28T18:03:14.911Z,1.80
2018-09-28T18:07:20.405Z,1.30
2018-09-28T18:11:25.424Z,1.50
2018-09-28T18:15:30.333Z,1.43
2018-09-28T18:19:34.022Z,1.83
2018-09-28T18:23:37.923Z,1.00
2018-09-28T18:27:41.620Z,1.77
2018-09-28T18:31:45.498Z,1.57
2018-09-28T18:35:49.227Z,1.83
2018-09-28T18:39:53.027Z,1.80
2018-09-28T18:43:56.708Z,1.80
2018-09-28T18:48:00.401Z,1.33
2018-09-28T18:52:04.140Z,1.70
2018-09-28T18:56:07.880Z,2.03
2018-09-28T19:00:11.608Z,1.70
2018-09-28T19:04:15.300Z,1.60
2018-09-28T19:08:18.992Z,2.43
2018-09-28T19:12:22.740Z,1.47
2018-09-28T19:16:26.447Z,1.50
2018-09-28T19:20:30.120Z,1.57
2018-09-28T19:24:33.800Z,2.73
2018-09-28T19:28:37.588Z,2.10
2018-09-28T19:32:41.404Z,2.00
2018-09-28T19:36:45.074Z,10.30
2018-09-28T19:40:48.933Z,17.50
2018-09-28T19:44:52.628Z,11.97
2018-09-28T19:48:56.332Z,4.60
2018-09-28T19:52:59.997Z,3.77
2018-09-28T19:57:03.695Z,2.10
2018-09-28T20:01:07.560Z,2.13
2018-09-28T20:05:11.249Z,2.53
2018-09-28T20:09:15.444Z,4.70
2018-09-28T20:13:19.076Z,4.03
2018-09-28T20:17:22.771Z,2.20
2018-09-28T20:21:26.464Z,3.10
2018-09-28T20:25:30.176Z,1.70
2018-09-28T20:29:33.940Z,2.63
2018-09-28T20:33:37.662Z,2.77
2018-09-28T20:37:41.389Z,5.70
2018-09-28T20:41:45.137Z,4.73
2018-09-28T20:45:48.837Z,3.57
2018-09-28T20:49:52.501Z,5.17
2018-09-28T20:53:56.184Z,4.37
2018-09-28T20:57:59.904Z,5.57
2018-09-28T21:02:03.637Z,6.13
2018-09-28T21:06:07.396Z,2.53
2018-09-28T21:10:11.060Z,5.30
2018-09-28T21:14:14.740Z,4.93
2018-09-28T21:18:18.419Z,3.70
2018-09-28T21:22:22.117Z,3.60
2018-09-28T21:26:25.822Z,3.10
2018-09-28T21:30:29.488Z,2.87
2018-09-28T21:34:33.206Z,6.90
2018-09-28T21:38:36.903Z,10.73
2018-09-28T21:42:40.585Z,6.27
2018-09-28T21:46:44.284Z,21.23
2018-09-28T21:50:48.017Z,14.97
2018-09-28T21:54:51.704Z,16.03
2018-09-28T21:58:55.444Z,12.07
2018-09-28T22:02:59.193Z,15.00
2018-09-28T22:07:02.891Z,8.90
2018-09-28T22:11:06.548Z,8.17
2018-09-28T22:15:10.224Z,7.10
2018-09-28T22:19:13.931Z,7.33
2018-09-28T22:23:17.622Z,6.90
2018-09-28T22:27:21.319Z,13.73
2018-09-28T22:31:25.016Z,5.60
2018-09-28T22:35:28.688Z,2.50
2018-09-28T22:39:32.380Z,2.60
2018-09-28T22:43:36.142Z,6.73
2018-09-28T22:47:39.864Z,9.97
2018-09-28T22:51:43.548Z,4.23
2018-09-28T22:55:47.238Z,3.57
2018-09-28T22:59:50.936Z,4.03
2018-09-28T23:03:54.660Z,4.10
2018-09-28T23:07:58.498Z,2.70
2018-09-28T23:12:02.269Z,2.47
2018-09-28T23:16:05.933Z,2.70
2018-09-28T23:20:09.688Z,3.90
2018-09-28T23:24:13.401Z,2.13
2018-09-28T23:28:17.080Z,3.10
2018-09-28T23:32:20.797Z,2.00
2018-09-28T23:36:24.471Z,2.70
2018-09-28T23:40:28.160Z,5.50
2018-09-28T23:44:31.852Z,3.97
2018-09-28T23:48:35.581Z,2.47
2018-09-28T23:52:39.251Z,2.40
2018-09-28T23:56:42.940Z,5.53
